createdAt,value
2019-05-07T00:01:14.616Z,7.40
2019-05-07T00:03:43.985Z,7.40
2019-05-07T00:06:13.444Z,7.30
2019-05-07T00:08:44.906Z,7.30
2019-05-07T00:11:13.929Z,7.30
2019-05-07T00:13:44.419Z,7.20
2019-05-07T00:16:14.167Z,7.20
2019-05-07T00:18:43.628Z,7.20
2019-05-07T00:21:12.972Z,7.10
2019-05-07T00:23:43.304Z,7.00
2019-05-07T00:26:13.383Z,6.90
2019-05-07T00:28:43.473Z,6.90
2019-05-07T00:31:13.415Z,6.80
2019-05-07T00:33:43.482Z,6.90
2019-05-07T00:36:28.703Z,6.80
2019-05-07T00:39:08.187Z,6.70
2019-05-07T00:41:44.235Z,6.70
2019-05-07T00:44:14.339Z,6.70
2019-05-07T00:46:43.706Z,6.60
2019-05-07T00:49:13.427Z,6.50
2019-05-07T00:51:42.969Z,6.50
2019-05-07T00:54:12.432Z,6.40
2019-05-07T00:56:42.873Z,6.40
2019-05-07T00:59:13.213Z,6.30
2019-05-07T01:01:43.344Z,6.20
2019-05-07T01:04:12.992Z,6.20
2019-05-07T01:06:42.584Z,6.10
2019-05-07T01:09:12.404Z,6.10
2019-05-07T01:11:42.915Z,6.10
2019-05-07T01:14:12.552Z,6.00
2019-05-07T01:16:42.284Z,6.00
2019-05-07T01:19:12.528Z,5.90
2019-05-07T01:21:43.306Z,5.90
2019-05-07T01:24:12.913Z,5.90
2019-05-07T01:26:42.711Z,5.80
2019-05-07T01:29:12.907Z,5.70
2019-05-07T01:31:54.154Z,5.70
2019-05-07T01:34:45.344Z,5.60
2019-05-07T01:37:14.702Z,5.60
2019-05-07T01:39:44.156Z,5.60
2019-05-07T01:42:13.499Z,5.60
2019-05-07T01:44:42.951Z,5.50
2019-05-07T01:47:13.012Z,5.50
2019-05-07T01:49:42.734Z,5.40
2019-05-07T01:52:13.353Z,5.50
2019-05-07T01:54:43.003Z,5.40
2019-05-07T01:57:12.409Z,5.40
2019-05-07T01:59:42.756Z,5.40
2019-05-07T02:02:34.044Z,5.40
2019-05-07T02:05:15.161Z,5.40
2019-05-07T02:07:52.122Z,5.30
2019-05-07T02:10:44.131Z,5.20
2019-05-07T02:13:13.671Z,5.20
2019-05-07T02:15:57.277Z,5.20
2019-05-07T02:18:14.301Z,5.20
2019-05-07T02:20:43.663Z,5.10
2019-05-07T02:23:13.096Z,5.10
2019-05-07T02:25:42.551Z,5.10
2019-05-07T02:28:12.827Z,5.00
2019-05-07T02:30:44.356Z,5.00
2019-05-07T02:33:14.008Z,4.90
2019-05-07T02:35:44.042Z,4.90
2019-05-07T02:38:26.576Z,4.90
2019-05-07T02:41:02.911Z,4.90
2019-05-07T02:43:33.815Z,4.90
2019-05-07T02:46:25.701Z,4.70
2019-05-07T02:49:02.880Z,4.80
2019-05-07T02:51:36.648Z,4.80
2019-05-07T02:54:16.391Z,4.60
2019-05-07T02:56:45.874Z,4.70
2019-05-07T02:59:15.252Z,4.60
2019-05-07T03:01:45.064Z,4.60
2019-05-07T03:04:14.448Z,4.60
2019-05-07T03:06:44.511Z,4.60
2019-05-07T03:09:14.636Z,4.50
2019-05-07T03:11:44.420Z,4.50
2019-05-07T03:14:14.260Z,4.50
2019-05-07T03:16:48.824Z,4.50
2019-05-07T03:19:15.364Z,4.40
2019-05-07T03:22:03.869Z,4.50
2019-05-07T03:24:43.473Z,4.50
2019-05-07T03:27:14.341Z,4.50
2019-05-07T03:29:48.321Z,4.40
2019-05-07T03:32:39.408Z,4.50
2019-05-07T03:35:27.558Z,4.50
2019-05-07T03:37:54.781Z,4.50
2019-05-07T03:40:24.308Z,4.60
2019-05-07T03:42:53.938Z,4.60
2019-05-07T03:45:47.244Z,4.70
2019-05-07T03:48:18.492Z,4.70
2019-05-07T03:50:47.965Z,4.80
2019-05-07T03:53:17.423Z,4.80
2019-05-07T03:55:46.963Z,4.90
2019-05-07T03:58:16.326Z,4.90
2019-05-07T04:00:46.322Z,4.90
2019-05-07T04:03:19.359Z,4.90
2019-05-07T04:05:46.897Z,5.00
2019-05-07T04:08:16.350Z,5.00
2019-05-07T04:10:45.790Z,5.00
2019-05-07T04:13:15.319Z,5.00
2019-05-07T04:15:44.735Z,5.00
2019-05-07T04:18:14.375Z,4.90
2019-05-07T04:20:44.045Z,4.90
2019-05-07T04:23:14.219Z,5.00
2019-05-07T04:26:17.916Z,5.10
2019-05-07T04:28:55.076Z,5.10
2019-05-07T04:31:26.062Z,5.20
2019-05-07T04:33:57.142Z,5.30
2019-05-07T04:36:43.272Z,5.40
2019-05-07T04:39:13.223Z,5.40
2019-05-07T04:41:43.467Z,5.60
2019-05-07T04:44:14.064Z,5.70
2019-05-07T04:46:47.940Z,5.80
2019-05-07T04:49:15.269Z,5.90
2019-05-07T04:51:53.216Z,5.90
2019-05-07T04:54:23.671Z,6.00
2019-05-07T04:56:53.415Z,6.00
2019-05-07T04:59:23.765Z,6.00
2019-05-07T05:02:00.294Z,6.00
2019-05-07T05:04:33.476Z,6.00
2019-05-07T05:07:02.641Z,6.00
2019-05-07T05:09:33.090Z,6.10
2019-05-07T05:12:02.946Z,6.20
2019-05-07T05:14:33.780Z,6.20
2019-05-07T05:17:03.877Z,6.30
2019-05-07T05:19:33.522Z,6.30
2019-05-07T05:22:13.262Z,6.30
2019-05-07T05:24:45.643Z,6.30
2019-05-07T05:27:15.110Z,6.40
2019-05-07T05:29:44.497Z,6.50
2019-05-07T05:32:13.959Z,6.60
2019-05-07T05:34:43.431Z,6.80
2019-05-07T05:37:12.942Z,6.90
2019-05-07T05:39:42.801Z,6.90
2019-05-07T05:42:33.024Z,7.00
2019-05-07T05:45:02.481Z,7.00
2019-05-07T05:47:33.013Z,7.10
2019-05-07T05:50:03.333Z,7.10
2019-05-07T05:52:42.999Z,7.20
2019-05-07T05:55:15.286Z,7.20
2019-05-07T05:58:02.839Z,7.30
2019-05-07T06:01:02.562Z,7.40
2019-05-07T06:03:56.450Z,7.60
2019-05-07T06:06:39.569Z,7.80
2019-05-07T06:09:16.785Z,8.30
2019-05-07T06:12:14.492Z,8.10
2019-05-07T06:14:50.882Z,8.20
2019-05-07T06:17:38.303Z,8.20
2019-05-07T06:20:27.755Z,8.30
2019-05-07T06:23:16.983Z,8.40
2019-05-07T06:25:47.148Z,8.40
2019-05-07T06:28:16.671Z,8.60
2019-05-07T06:30:46.120Z,8.60
2019-05-07T06:33:15.458Z,8.60
2019-05-07T06:35:44.939Z,8.60
2019-05-07T06:38:15.142Z,8.70
2019-05-07T06:40:51.929Z,8.80
2019-05-07T06:43:29.875Z,8.90
2019-05-07T06:46:01.740Z,8.90
2019-05-07T06:48:39.070Z,9.20
2019-05-07T06:51:03.113Z,9.10
2019-05-07T06:53:33.825Z,9.20
2019-05-07T06:56:03.739Z,9.30
2019-05-07T06:59:07.571Z,9.40
2019-05-07T07:01:54.277Z,9.50
2019-05-07T07:04:27.347Z,9.50
2019-05-07T07:07:33.941Z,9.50
2019-05-07T07:10:08.170Z,9.80
2019-05-07T07:12:37.610Z,10.40
2019-05-07T07:15:07.355Z,10.20
2019-05-07T07:17:36.738Z,10.30
2019-05-07T07:20:06.636Z,10.20
2019-05-07T07:22:35.979Z,10.20
2019-05-07T07:25:06.647Z,10.40
2019-05-07T07:27:36.313Z,10.50
2019-05-07T07:30:28.630Z,10.50
2019-05-07T07:32:59.688Z,10.50
2019-05-07T07:35:29.105Z,10.60
2019-05-07T07:37:58.576Z,10.80
2019-05-07T07:40:44.550Z,10.90
2019-05-07T07:43:13.901Z,10.70
2019-05-07T07:45:43.347Z,10.70
2019-05-07T07:48:13.279Z,10.80
2019-05-07T07:50:42.756Z,11.30
2019-05-07T07:53:12.997Z,11.30
2019-05-07T07:56:02.570Z,11.00
2019-05-07T07:58:48.866Z,11.10
2019-05-07T08:01:25.007Z,10.90
2019-05-07T08:03:54.429Z,10.90
2019-05-07T08:06:25.355Z,10.90
2019-05-07T08:08:54.743Z,10.80
2019-05-07T08:11:24.158Z,11.10
2019-05-07T08:13:53.659Z,11.20
2019-05-07T08:16:23.014Z,11.20
2019-05-07T08:18:52.465Z,11.40
2019-05-07T08:21:22.698Z,11.40
2019-05-07T08:23:52.945Z,11.20
2019-05-07T08:26:22.516Z,11.20
2019-05-07T08:28:52.455Z,11.40
2019-05-07T08:31:47.353Z,11.40
2019-05-07T08:34:27.841Z,11.30
2019-05-07T08:36:57.413Z,11.60
2019-05-07T08:39:26.899Z,11.90
2019-05-07T08:41:56.318Z,11.70
2019-05-07T08:44:29.985Z,11.80
2019-05-07T08:47:18.042Z,12.00
2019-05-07T08:49:47.395Z,11.60
2019-05-07T08:52:16.918Z,11.70
2019-05-07T08:54:46.391Z,12.00
2019-05-07T08:57:15.786Z,11.90
2019-05-07T08:59:57.405Z,11.90
2019-05-07T09:02:16.373Z,11.80
2019-05-07T09:04:45.775Z,11.80
2019-05-07T09:07:15.330Z,11.90
2019-05-07T09:09:44.901Z,11.90
2019-05-07T09:12:14.379Z,12.20
2019-05-07T09:14:43.834Z,12.40
2019-05-07T09:17:13.166Z,12.00
2019-05-07T09:19:50.786Z,12.00
2019-05-07T09:22:13.858Z,11.70
2019-05-07T09:24:43.306Z,11.90
2019-05-07T09:27:24.948Z,11.70
2019-05-07T09:30:03.103Z,11.70
2019-05-07T09:32:55.075Z,11.60
2019-05-07T09:35:29.088Z,11.50
2019-05-07T09:37:58.602Z,11.40
2019-05-07T09:40:27.951Z,11.40
2019-05-07T09:42:57.427Z,11.60
2019-05-07T09:45:26.760Z,11.70
2019-05-07T09:47:56.210Z,11.60
2019-05-07T09:50:25.810Z,11.30
2019-05-07T09:52:55.419Z,11.40
2019-05-07T09:55:24.814Z,11.60
2019-05-07T09:57:54.562Z,11.50
2019-05-07T10:00:25.235Z,11.60
2019-05-07T10:02:56.679Z,11.50
2019-05-07T10:05:25.961Z,11.60
2019-05-07T10:07:55.467Z,11.60
2019-05-07T10:10:25.002Z,11.40
2019-05-07T10:13:09.593Z,11.50
2019-05-07T10:15:38.935Z,11.70
2019-05-07T10:18:12.508Z,11.70
2019-05-07T10:20:42.510Z,11.80
2019-05-07T10:23:22.802Z,11.80
2019-05-07T10:25:54.360Z,11.90
2019-05-07T10:28:24.415Z,11.90
2019-05-07T10:30:55.071Z,11.90
2019-05-07T10:33:24.467Z,12.10
2019-05-07T10:35:53.840Z,12.20
2019-05-07T10:38:23.395Z,12.30
2019-05-07T10:40:52.839Z,12.40
2019-05-07T10:43:22.464Z,12.30
2019-05-07T10:46:14.283Z,12.30
2019-05-07T10:49:02.042Z,12.40
2019-05-07T10:51:32.192Z,12.20
2019-05-07T10:54:02.265Z,12.30
2019-05-07T10:56:32.627Z,12.10
2019-05-07T10:59:02.850Z,12.10
2019-05-07T11:01:39.267Z,12.10
2019-05-07T11:04:08.637Z,11.80
2019-05-07T11:06:38.103Z,12.00
2019-05-07T11:09:08.723Z,12.00
2019-05-07T11:11:38.153Z,11.90
2019-05-07T11:14:07.618Z,12.20
2019-05-07T11:16:46.886Z,12.20
2019-05-07T11:19:18.857Z,12.20
2019-05-07T11:21:47.494Z,12.50
2019-05-07T11:24:16.860Z,12.50
2019-05-07T11:26:46.318Z,12.60
2019-05-07T11:29:15.665Z,12.70
2019-05-07T11:31:45.078Z,12.90
2019-05-07T11:34:14.453Z,12.70
2019-05-07T11:36:44.048Z,12.70
2019-05-07T11:39:13.462Z,12.70
2019-05-07T11:42:02.342Z,13.00
2019-05-07T11:44:32.161Z,13.10
2019-05-07T11:47:22.737Z,12.90
2019-05-07T11:50:11.988Z,12.90
2019-05-07T11:52:44.446Z,12.70
2019-05-07T11:55:13.842Z,12.90
2019-05-07T11:57:44.475Z,13.30
2019-05-07T12:00:26.796Z,13.30
2019-05-07T12:02:56.296Z,13.30
2019-05-07T12:05:25.916Z,13.40
2019-05-07T12:07:55.378Z,13.20
2019-05-07T12:10:25.439Z,13.20
2019-05-07T12:12:54.885Z,13.10
2019-05-07T12:15:24.406Z,13.10
2019-05-07T12:17:53.803Z,13.60
2019-05-07T12:20:24.015Z,13.40
2019-05-07T12:22:53.429Z,13.70
2019-05-07T12:25:23.209Z,13.60
2019-05-07T12:27:54.479Z,13.20
2019-05-07T12:30:35.134Z,13.10
2019-05-07T12:33:23.192Z,13.20
2019-05-07T12:35:52.581Z,13.20
2019-05-07T12:38:22.068Z,13.70
2019-05-07T12:40:52.367Z,14.30
2019-05-07T12:43:21.902Z,14.80
2019-05-07T12:45:52.449Z,14.50
2019-05-07T12:48:22.146Z,14.90
2019-05-07T12:50:52.260Z,15.40
2019-05-07T12:53:47.986Z,15.20
2019-05-07T12:56:17.458Z,14.40
2019-05-07T12:58:47.126Z,13.50
2019-05-07T13:01:34.578Z,13.30
2019-05-07T13:04:13.486Z,13.30
2019-05-07T13:06:58.356Z,13.20
2019-05-07T13:09:27.833Z,13.20
2019-05-07T13:11:57.314Z,13.80
2019-05-07T13:14:26.735Z,14.00
2019-05-07T13:16:56.087Z,13.80
2019-05-07T13:19:25.540Z,13.70
2019-05-07T13:21:54.993Z,13.70
2019-05-07T13:24:24.518Z,14.40
2019-05-07T13:26:54.042Z,14.60
2019-05-07T13:29:23.461Z,14.30
2019-05-07T13:31:54.514Z,14.30
2019-05-07T13:34:24.029Z,14.10
2019-05-07T13:36:58.230Z,14.70
2019-05-07T13:39:42.996Z,15.40
2019-05-07T13:42:31.968Z,15.90
2019-05-07T13:45:06.744Z,15.70
2019-05-07T13:47:38.462Z,15.60
2019-05-07T13:50:08.827Z,16.20
2019-05-07T13:52:38.858Z,16.50
2019-05-07T13:55:08.655Z,15.70
2019-05-07T13:57:38.231Z,16.10
2019-05-07T14:00:12.826Z,16.30
2019-05-07T14:02:42.434Z,15.80
2019-05-07T14:05:14.172Z,15.40
2019-05-07T14:07:44.051Z,14.80
2019-05-07T14:10:13.950Z,14.80
2019-05-07T14:12:43.501Z,14.50
2019-05-07T14:15:14.152Z,14.30
2019-05-07T14:17:43.650Z,14.10
2019-05-07T14:20:13.119Z,13.80
2019-05-07T14:22:42.717Z,13.80
2019-05-07T14:25:12.550Z,13.60
2019-05-07T14:27:42.872Z,13.40
2019-05-07T14:30:13.113Z,13.40
2019-05-07T14:33:07.291Z,13.60
2019-05-07T14:35:48.997Z,13.60
2019-05-07T14:38:36.445Z,13.80
2019-05-07T14:41:06.141Z,14.80
2019-05-07T14:43:41.819Z,14.60
2019-05-07T14:46:12.025Z,14.50
2019-05-07T14:48:43.793Z,14.30
2019-05-07T14:51:12.978Z,14.90
2019-05-07T14:53:42.766Z,14.30
2019-05-07T14:56:14.256Z,14.60
2019-05-07T14:58:44.645Z,14.40
2019-05-07T15:01:14.095Z,14.50
2019-05-07T15:03:43.643Z,14.30
2019-05-07T15:06:13.599Z,14.20
2019-05-07T15:08:43.438Z,14.10
2019-05-07T15:11:13.293Z,14.10
2019-05-07T15:13:42.942Z,14.80
2019-05-07T15:16:13.566Z,15.10
2019-05-07T15:18:53.661Z,14.40
2019-05-07T15:21:24.122Z,14.70
2019-05-07T15:23:55.362Z,14.30
2019-05-07T15:26:25.063Z,14.60
2019-05-07T15:29:02.856Z,15.30
2019-05-07T15:31:51.734Z,15.70
2019-05-07T15:34:22.158Z,15.40
2019-05-07T15:36:52.690Z,16.30
2019-05-07T15:39:22.358Z,17.70
2019-05-07T15:41:52.015Z,17.80
2019-05-07T15:44:21.626Z,18.20
2019-05-07T15:46:52.630Z,18.50
2019-05-07T15:49:22.116Z,18.40
2019-05-07T15:51:53.246Z,18.60
2019-05-07T15:54:22.677Z,17.40
2019-05-07T15:56:54.692Z,16.40
2019-05-07T15:59:24.203Z,15.90
2019-05-07T16:01:57.825Z,16.00
2019-05-07T16:04:27.178Z,17.00
2019-05-07T16:06:58.252Z,16.50
2019-05-07T16:09:30.074Z,17.50
2019-05-07T16:12:00.055Z,17.40
2019-05-07T16:14:31.982Z,17.60
2019-05-07T16:17:07.640Z,17.20
2019-05-07T16:19:36.998Z,16.90
2019-05-07T16:22:12.748Z,15.50
2019-05-07T16:24:42.431Z,15.30
2019-05-07T16:27:12.243Z,14.80
2019-05-07T16:29:42.171Z,14.70
2019-05-07T16:32:12.437Z,14.80
2019-05-07T16:34:42.880Z,14.90
2019-05-07T16:37:12.644Z,14.90
2019-05-07T16:39:42.246Z,15.40
2019-05-07T16:42:11.877Z,15.50
2019-05-07T16:44:41.737Z,15.40
2019-05-07T16:47:12.221Z,15.70
2019-05-07T16:49:42.497Z,15.80
2019-05-07T16:52:12.135Z,15.60
2019-05-07T16:54:42.644Z,15.80
2019-05-07T16:57:42.366Z,15.60
2019-05-07T17:00:17.732Z,15.80
2019-05-07T17:02:48.115Z,15.90
2019-05-07T17:05:17.674Z,15.60
2019-05-07T17:07:52.441Z,15.50
2019-05-07T17:10:22.335Z,15.80
2019-05-07T17:12:52.469Z,15.60
2019-05-07T17:15:22.815Z,15.70
2019-05-07T17:17:59.472Z,15.50
2019-05-07T17:20:32.652Z,15.40
2019-05-07T17:23:03.046Z,15.20
2019-05-07T17:25:38.630Z,15.00
2019-05-07T17:28:08.324Z,15.00
2019-05-07T17:30:38.526Z,14.80
2019-05-07T17:33:07.956Z,14.70
2019-05-07T17:35:37.347Z,14.40
2019-05-07T17:38:09.811Z,14.10
2019-05-07T17:40:42.253Z,14.10
2019-05-07T17:43:12.304Z,14.00
2019-05-07T17:45:42.963Z,13.60
2019-05-07T17:48:12.801Z,13.30
2019-05-07T17:50:50.579Z,13.00
2019-05-07T17:53:20.047Z,13.00
2019-05-07T17:55:49.419Z,12.80
2019-05-07T17:58:18.891Z,12.60
2019-05-07T18:00:50.328Z,12.30
2019-05-07T18:03:47.866Z,12.10
2019-05-07T18:06:17.223Z,12.00
2019-05-07T18:08:46.782Z,11.80
2019-05-07T18:11:21.000Z,11.70
2019-05-07T18:13:47.294Z,11.50
2019-05-07T18:16:41.987Z,11.50
2019-05-07T18:19:12.618Z,11.40
2019-05-07T18:21:42.250Z,11.20
2019-05-07T18:24:16.432Z,11.10
2019-05-07T18:26:42.960Z,11.00
2019-05-07T18:29:12.499Z,10.90
2019-05-07T18:31:50.613Z,10.90
2019-05-07T18:34:22.903Z,10.70
2019-05-07T18:36:53.069Z,10.70
2019-05-07T18:39:22.721Z,10.60
2019-05-07T18:41:52.417Z,10.50
2019-05-07T18:44:22.288Z,10.50
2019-05-07T18:46:52.879Z,10.40
2019-05-07T18:49:22.503Z,10.30
2019-05-07T18:51:52.219Z,10.20
2019-05-07T18:54:29.927Z,10.20
2019-05-07T18:56:53.023Z,10.20
2019-05-07T18:59:24.732Z,10.10
2019-05-07T19:01:54.305Z,10.10
2019-05-07T19:04:23.804Z,10.00
2019-05-07T19:06:53.247Z,9.90
2019-05-07T19:09:22.738Z,9.90
2019-05-07T19:11:52.386Z,9.80
2019-05-07T19:14:22.646Z,9.80
2019-05-07T19:16:52.738Z,9.70
2019-05-07T19:19:22.437Z,9.60
2019-05-07T19:21:53.037Z,9.60
2019-05-07T19:24:26.049Z,9.50
2019-05-07T19:26:54.112Z,9.50
2019-05-07T19:29:23.555Z,9.40
2019-05-07T19:31:53.250Z,9.30
2019-05-07T19:34:22.592Z,9.20
2019-05-07T19:36:54.917Z,9.20
2019-05-07T19:39:24.306Z,9.20
2019-05-07T19:41:53.747Z,9.10
2019-05-07T19:44:23.257Z,9.10
2019-05-07T19:46:52.753Z,9.10
2019-05-07T19:49:25.259Z,9.00
2019-05-07T19:51:54.669Z,9.00
2019-05-07T19:54:24.445Z,9.00
2019-05-07T19:56:53.877Z,8.90
2019-05-07T19:59:23.378Z,8.80
2019-05-07T20:01:57.439Z,8.80
2019-05-07T20:04:26.778Z,8.70
2019-05-07T20:06:58.488Z,8.60
2019-05-07T20:09:32.936Z,8.60
2019-05-07T20:12:02.882Z,8.50
2019-05-07T20:14:33.230Z,8.50
2019-05-07T20:17:03.598Z,8.30
2019-05-07T20:19:33.090Z,8.10
2019-05-07T20:22:02.610Z,8.10
2019-05-07T20:24:32.583Z,8.10
2019-05-07T20:27:03.159Z,8.00
2019-05-07T20:29:32.821Z,7.90
2019-05-07T20:32:02.485Z,7.90
2019-05-07T20:34:32.927Z,7.80
2019-05-07T20:37:03.183Z,7.80
2019-05-07T20:39:32.585Z,7.80
2019-05-07T20:42:03.038Z,7.70
2019-05-07T20:44:32.801Z,7.60
2019-05-07T20:47:02.326Z,7.60
2019-05-07T20:49:34.526Z,7.50
2019-05-07T20:52:03.955Z,7.40
2019-05-07T20:54:38.014Z,7.20
2019-05-07T20:57:22.312Z,6.90
2019-05-07T20:59:51.222Z,6.50
2019-05-07T21:02:22.720Z,6.20
2019-05-07T21:04:51.975Z,6.20
2019-05-07T21:07:22.244Z,6.20
2019-05-07T21:09:53.023Z,6.20
2019-05-07T21:12:22.805Z,6.10
2019-05-07T21:14:52.560Z,6.10
2019-05-07T21:17:22.699Z,6.20
2019-05-07T21:19:52.306Z,6.20
2019-05-07T21:22:22.638Z,6.20
2019-05-07T21:24:53.302Z,6.30
2019-05-07T21:27:23.030Z,6.20
2019-05-07T21:29:52.850Z,6.20
2019-05-07T21:32:23.163Z,6.10
2019-05-07T21:34:53.022Z,6.10
2019-05-07T21:37:23.044Z,6.10
2019-05-07T21:39:53.163Z,6.00
2019-05-07T21:42:23.129Z,6.00
2019-05-07T21:44:52.994Z,6.00
2019-05-07T21:47:22.616Z,6.00
2019-05-07T21:49:54.854Z,6.00
2019-05-07T21:52:24.382Z,5.80
2019-05-07T21:55:05.680Z,5.70
2019-05-07T21:57:54.646Z,5.40
2019-05-07T22:00:41.753Z,5.20
2019-05-07T22:03:14.550Z,5.10
2019-05-07T22:06:38.280Z,4.80
2019-05-07T22:09:08.980Z,4.90
2019-05-07T22:11:38.452Z,5.00
2019-05-07T22:14:07.987Z,5.00
2019-05-07T22:16:37.337Z,5.00
2019-05-07T22:19:07.439Z,4.90
2019-05-07T22:21:36.805Z,4.70
2019-05-07T22:24:06.240Z,4.80
2019-05-07T22:26:35.554Z,5.00
2019-05-07T22:29:04.843Z,5.10
2019-05-07T22:31:43.929Z,5.00
2019-05-07T22:34:34.258Z,4.90
2019-05-07T22:37:03.558Z,4.90
2019-05-07T22:39:32.903Z,4.80
2019-05-07T22:42:02.543Z,4.70
2019-05-07T22:44:32.255Z,4.80
2019-05-07T22:47:18.871Z,4.90
2019-05-07T22:49:49.881Z,4.80
2019-05-07T22:52:22.256Z,4.80
2019-05-07T22:54:51.183Z,4.70
2019-05-07T22:57:38.373Z,4.70
2019-05-07T23:00:12.296Z,4.70
2019-05-07T23:02:42.760Z,4.70
2019-05-07T23:05:13.875Z,4.70
2019-05-07T23:07:44.023Z,4.70
2019-05-07T23:10:13.834Z,4.70
2019-05-07T23:12:43.175Z,4.70
2019-05-07T23:15:12.720Z,4.70
2019-05-07T23:17:42.175Z,4.70
2019-05-07T23:20:11.518Z,4.70
2019-05-07T23:22:42.818Z,4.80
2019-05-07T23:25:11.961Z,4.80
2019-05-07T23:27:41.995Z,4.80
2019-05-07T23:30:12.990Z,4.50
2019-05-07T23:32:42.658Z,4.10
2019-05-07T23:35:12.731Z,3.80
2019-05-07T23:37:44.177Z,3.80
2019-05-07T23:40:23.717Z,3.80
2019-05-07T23:42:54.146Z,3.80
2019-05-07T23:45:23.698Z,3.80
2019-05-07T23:47:53.055Z,3.70
2019-05-07T23:50:22.530Z,3.60
2019-05-07T23:52:52.715Z,3.70
2019-05-07T23:55:22.843Z,3.60
2019-05-07T23:57:52.581Z,3.60
